Terminal Aerodrome Forecast
Issued by NWS

Home | Current Version | Previous Version | Graphics & Text | Print | Product List | Glossary On
Versions: 1 2 3 4 5 6 7 8 9 10 11 12 13 14 15
694
FTUS43 KMPX 202320
TAFAXN
TAF
KAXN 202320Z 2100/2124 33011KT P6SM FEW050
     FM210100 33004KT P6SM FEW250
     FM211200 14006KT P6SM BKN110
     FM211400 17012KT P6SM VCSH SCT050 BKN090
     FM211800 17012G18KT P6SM BKN090=

USA.gov is the U.S. government's official web portal to all federal, state and local government web resources and services.